CheckWX is a tool to help pilots better visualize weather data.  It is not intended as a substitute for an official pre-flight weather briefing.

06:42:43 UTC

KORH TAF
Worcester Regional Airport
Worcester, Massachusetts, USA
KORH 260536Z 2606/2706 06005KT 1/4SM -RA FG OVC002 FM260800 03004KT 2SM BR VCSH OVC003 FM261500 07006KT P6SM OVC010 FM262300 07007KT 3SM BR VCSH OVC008 FM270400 08010G19KT 3SM -RA BR OVC003

Feb-26@
06:00 UTC

Feb-26 @ 06:00 UTC

Feb-26@
08:00 UTC

Feb-26 @ 08:00 UTC

KORH 260536Z 2606/2706 06005KT 1/4SM -RA FG OVC002
Wind
  • 060° at 5 KTS
Conditions
Light Rain, Fog
Cloud Levels
  • Overcast at 200' AGL

Feb-26@
08:00 UTC

Feb-26 @ 08:00 UTC

Feb-26@
15:00 UTC

Feb-26 @ 15:00 UTC

FM260800 03004KT 2SM BR VCSH OVC003

From

From Standard forecast or significant change

Wind
  • 030° at 4 KTS
Conditions
Mist
Cloud Levels
  • Overcast at 300' AGL

Feb-26@
15:00 UTC

Feb-26 @ 15:00 UTC

Feb-26@
23:00 UTC

Feb-26 @ 23:00 UTC

FM261500 07006KT P6SM OVC010

From

From Standard forecast or significant change

Wind
  • 070° at 6 KTS
Cloud Levels
  • Overcast at 1,000' AGL

Feb-26@
23:00 UTC

Feb-26 @ 23:00 UTC

Feb-27@
04:00 UTC

Feb-27 @ 04:00 UTC

FM262300 07007KT 3SM BR VCSH OVC008

From

From Standard forecast or significant change

Wind
  • 070° at 7 KTS
Conditions
Mist
Cloud Levels
  • Overcast at 800' AGL

Feb-27@
04:00 UTC

Feb-27 @ 04:00 UTC

Feb-27@
06:00 UTC

Feb-27 @ 06:00 UTC

FM270400 08010G19KT 3SM -RA BR OVC003

From

From Standard forecast or significant change

Wind
  • 080° at 10 KTS
  • {Gusting to 19 KTS
Conditions
Light Rain, Mist
Cloud Levels
  • Overcast at 300' AGL